Time;durP1;ratioP1;P1;durP2;ratioP2;P2;SDS_P1;SDS_P2;PMS_P1;PMS_P2;Temp;Humidity;BMP_temperature;BMP_pressure;BME280_temperature;BME280_humidity;BME280_pressure;Samples;Min_cycle;Max_cycle;Signal;HPM_P1;HPM_P2
2023/04/25 00:01:37;;;;;;;2.80;2.55;;;;;;;;;;5011254;28;20030;-71
2023/04/25 00:04:05;;;;;;;3.95;3.35;;;;;;;;;;5011358;28;20026;-72
2023/04/25 00:06:32;;;;;;;5.60;3.22;;;;;;;;;;5011660;28;20029;-73
2023/04/25 00:08:58;;;;;;;4.85;3.20;;;;;;;;;;5011036;28;20026;-71
2023/04/25 00:11:24;;;;;;;4.47;3.13;;;;;;;;;;5027756;23;20050;-72
2023/04/25 00:13:50;;;;;;;5.13;2.90;;;;;;;;;;4994788;28;20077;-72
2023/04/25 00:16:16;;;;;;;4.40;3.13;;;;;;;;;;4991747;28;20050;-72
2023/04/25 00:18:43;;;;;;;5.90;3.53;;;;;;;;;;4992879;28;20089;-72
2023/04/25 00:21:09;;;;;;;6.22;3.50;;;;;;;;;;5000285;28;20063;-72
2023/04/25 00:23:36;;;;;;;3.90;3.30;;;;;;;;;;5001123;28;20023;-72
2023/04/25 00:26:02;;;;;;;7.18;3.20;;;;;;;;;;4982710;28;20516;-72
2023/04/25 00:28:28;;;;;;;4.75;3.47;;;;;;;;;;5000667;28;20050;-72
2023/04/25 00:30:54;;;;;;;3.97;2.75;;;;;;;;;;4998904;28;20141;-71
2023/04/25 00:33:20;;;;;;;12.85;3.70;;;;;;;;;;4994987;28;20022;-72
2023/04/25 00:35:46;;;;;;;4.63;3.63;;;;;;;;;;4995074;28;20045;-72
2023/04/25 00:38:13;;;;;;;6.72;3.85;;;;;;;;;;4974374;28;20030;-72
2023/04/25 00:40:39;;;;;;;5.47;3.45;;;;;;;;;;4986442;28;20031;-72
2023/04/25 00:43:05;;;;;;;5.47;2.83;;;;;;;;;;4997229;28;20037;-72
2023/04/25 00:45:31;;;;;;;6.45;3.67;;;;;;;;;;4997457;28;20030;-72
2023/04/25 00:47:57;;;;;;;4.13;3.65;;;;;;;;;;4995097;28;20047;-71
2023/04/25 00:50:23;;;;;;;5.50;3.70;;;;;;;;;;4994398;28;20026;-72
2023/04/25 00:52:49;;;;;;;9.27;4.47;;;;;;;;;;4994438;28;20037;-73
2023/04/25 00:55:15;;;;;;;4.97;3.22;;;;;;;;;;4994896;28;20027;-72
2023/04/25 00:57:42;;;;;;;5.68;3.97;;;;;;;;;;4994257;28;20027;-72
2023/04/25 01:00:09;;;;;;;5.10;3.92;;;;;;;;;;4996890;28;20054;-73
2023/04/25 01:02:36;;;;;;;4.72;3.80;;;;;;;;;;4999830;28;20105;-72
2023/04/25 01:05:02;;;;;;;5.93;3.95;;;;;;;;;;4997271;28;20088;-72
2023/04/25 01:07:28;;;;;;;5.28;3.88;;;;;;;;;;4995661;28;20026;-72
2023/04/25 01:09:54;;;;;;;7.70;4.07;;;;;;;;;;4996105;28;20393;-72
2023/04/25 01:12:21;;;;;;;4.50;4.03;;;;;;;;;;4995084;28;20037;-72
2023/04/25 01:14:47;;;;;;;5.05;3.88;;;;;;;;;;4976718;28;20106;-72
2023/04/25 01:17:14;;;;;;;8.13;4.35;;;;;;;;;;4993839;28;20096;-71
2023/04/25 01:19:40;;;;;;;6.00;4.07;;;;;;;;;;4993797;28;20046;-71
2023/04/25 01:22:06;;;;;;;4.88;3.97;;;;;;;;;;4993272;28;20030;-72
2023/04/25 01:24:33;;;;;;;12.10;5.18;;;;;;;;;;4993351;28;20547;-71
2023/04/25 01:27:01;;;;;;;8.50;4.80;;;;;;;;;;4993600;28;20018;-71
2023/04/25 01:29:27;;;;;;;6.53;4.50;;;;;;;;;;4993640;28;20098;-71
2023/04/25 01:31:54;;;;;;;7.43;4.78;;;;;;;;;;4976037;28;20023;-72
2023/04/25 01:34:20;;;;;;;8.55;5.15;;;;;;;;;;4993642;28;20041;-72
2023/04/25 01:36:47;;;;;;;10.25;5.40;;;;;;;;;;4993448;28;20026;-71
2023/04/25 01:39:13;;;;;;;9.32;4.93;;;;;;;;;;4975782;28;20034;-72
2023/04/25 01:41:40;;;;;;;6.68;3.97;;;;;;;;;;4993370;28;20393;-72
2023/04/25 01:44:06;;;;;;;7.60;5.35;;;;;;;;;;4993484;28;20027;-72
2023/04/25 01:46:32;;;;;;;7.70;4.78;;;;;;;;;;4993235;28;20026;-72
2023/04/25 01:48:58;;;;;;;7.55;4.38;;;;;;;;;;4993194;28;20030;-72
2023/04/25 01:51:24;;;;;;;6.25;4.47;;;;;;;;;;4993116;28;20149;-72
2023/04/25 01:53:50;;;;;;;6.95;5.05;;;;;;;;;;4993287;28;20500;-72
2023/04/25 01:56:16;;;;;;;9.15;5.20;;;;;;;;;;4993204;28;20411;-72
2023/04/25 01:58:42;;;;;;;6.68;4.70;;;;;;;;;;4992935;28;20022;-72
2023/04/25 02:01:08;;;;;;;7.18;4.68;;;;;;;;;;4992879;28;20038;-72
2023/04/25 02:03:34;;;;;;;6.88;4.63;;;;;;;;;;4975601;28;20034;-71
2023/04/25 02:06:01;;;;;;;7.15;4.90;;;;;;;;;;4992938;28;20057;-71
2023/04/25 02:08:27;;;;;;;8.25;5.05;;;;;;;;;;4992834;28;20038;-71
2023/04/25 02:10:53;;;;;;;7.68;5.07;;;;;;;;;;4975308;28;20610;-71
2023/04/25 02:13:19;;;;;;;10.18;4.72;;;;;;;;;;4992803;28;20108;-71
2023/04/25 02:15:45;;;;;;;8.63;4.88;;;;;;;;;;4992821;28;20023;-72
2023/04/25 02:18:11;;;;;;;8.82;5.15;;;;;;;;;;4992776;28;20131;-72
2023/04/25 02:20:37;;;;;;;8.88;5.00;;;;;;;;;;4992995;28;20449;-72
2023/04/25 02:23:04;;;;;;;8.20;5.10;;;;;;;;;;4975425;28;20057;-71
2023/04/25 02:25:30;;;;;;;8.88;5.95;;;;;;;;;;4992542;28;20522;-71
2023/04/25 02:27:56;;;;;;;14.85;5.82;;;;;;;;;;4992313;28;20034;-72
2023/04/25 02:30:22;;;;;;;7.60;5.75;;;;;;;;;;4975044;28;20026;-71
2023/04/25 02:32:48;;;;;;;9.65;5.43;;;;;;;;;;4992415;28;20023;-71
2023/04/25 02:35:14;;;;;;;12.23;5.30;;;;;;;;;;4992248;28;20032;-72
2023/04/25 02:37:40;;;;;;;9.00;5.20;;;;;;;;;;4992156;28;20034;-72
2023/04/25 02:40:07;;;;;;;10.45;5.68;;;;;;;;;;4980559;28;20033;-72
2023/04/25 02:42:34;;;;;;;7.78;4.80;;;;;;;;;;4992369;28;20377;-72
2023/04/25 02:45:00;;;;;;;10.27;5.95;;;;;;;;;;4992323;28;20121;-72
2023/04/25 02:47:26;;;;;;;11.13;5.88;;;;;;;;;;4991864;28;20477;-72
2023/04/25 02:49:52;;;;;;;7.45;5.07;;;;;;;;;;4992373;28;20532;-71
2023/04/25 02:52:18;;;;;;;9.77;6.03;;;;;;;;;;4974860;28;20030;-72
2023/04/25 02:54:44;;;;;;;7.80;4.85;;;;;;;;;;4993713;28;20018;-71
2023/04/25 02:57:10;;;;;;;12.70;6.05;;;;;;;;;;4992956;28;20027;-71
2023/04/25 02:59:36;;;;;;;11.25;5.50;;;;;;;;;;4992471;28;20049;-71
2023/04/25 03:02:02;;;;;;;9.43;4.88;;;;;;;;;;4992329;28;20022;-71
2023/04/25 03:04:28;;;;;;;7.03;5.15;;;;;;;;;;4992053;28;20022;-71
2023/04/25 03:06:54;;;;;;;8.32;5.18;;;;;;;;;;4991869;28;20034;-71
2023/04/25 03:09:20;;;;;;;7.50;5.47;;;;;;;;;;4991794;28;20113;-71
2023/04/25 03:11:46;;;;;;;8.75;5.28;;;;;;;;;;4991729;28;20885;-71
2023/04/25 03:14:13;;;;;;;9.30;5.78;;;;;;;;;;4991911;28;20101;-71
2023/04/25 03:16:39;;;;;;;8.52;5.63;;;;;;;;;;4991943;28;20566;-71
2023/04/25 03:19:05;;;;;;;10.20;6.00;;;;;;;;;;4991756;28;20037;-71
2023/04/25 03:21:35;;;;;;;8.68;4.88;;;;;;;;;;4991775;28;20098;-71
2023/04/25 03:24:02;;;;;;;7.95;5.90;;;;;;;;;;4991972;28;20506;-72
2023/04/25 03:26:28;;;;;;;9.13;5.88;;;;;;;;;;4991949;28;20042;-72
2023/04/25 03:28:54;;;;;;;9.23;5.93;;;;;;;;;;4991480;28;20026;-72
2023/04/25 03:31:20;;;;;;;9.80;5.97;;;;;;;;;;4992129;28;20018;-73
2023/04/25 03:33:46;;;;;;;9.77;6.53;;;;;;;;;;4991847;28;20073;-72
2023/04/25 03:36:12;;;;;;;8.82;6.00;;;;;;;;;;4991932;28;20025;-72
2023/04/25 03:38:38;;;;;;;9.60;6.68;;;;;;;;;;4991443;28;20027;-72
2023/04/25 03:41:04;;;;;;;9.30;5.97;;;;;;;;;;4991633;28;20073;-71
2023/04/25 03:43:30;;;;;;;11.10;7.13;;;;;;;;;;4991711;28;20041;-71
2023/04/25 03:45:57;;;;;;;12.15;7.18;;;;;;;;;;4993015;28;20098;-73
2023/04/25 03:48:24;;;;;;;11.38;7.13;;;;;;;;;;4995654;28;20507;-72
2023/04/25 03:50:50;;;;;;;8.90;6.50;;;;;;;;;;4995458;28;20083;-71
2023/04/25 03:53:16;;;;;;;14.05;7.68;;;;;;;;;;4995855;28;20100;-71
2023/04/25 03:55:42;;;;;;;12.52;7.13;;;;;;;;;;4977827;28;20018;-70
2023/04/25 03:58:08;;;;;;;13.35;7.38;;;;;;;;;;4995258;28;20037;-71
2023/04/25 04:00:35;;;;;;;11.75;6.65;;;;;;;;;;4995463;28;20377;-71
2023/04/25 04:03:01;;;;;;;9.05;6.75;;;;;;;;;;4995163;28;20404;-71
2023/04/25 04:05:27;;;;;;;12.05;7.20;;;;;;;;;;4995317;28;20405;-71
2023/04/25 04:07:53;;;;;;;14.30;7.35;;;;;;;;;;4994874;28;20472;-71
2023/04/25 04:10:19;;;;;;;10.65;7.20;;;;;;;;;;4994884;28;20089;-72
2023/04/25 04:12:45;;;;;;;11.77;7.68;;;;;;;;;;4994971;28;20034;-70
2023/04/25 04:15:12;;;;;;;11.52;6.75;;;;;;;;;;4994577;28;20030;-72
2023/04/25 04:17:38;;;;;;;11.23;6.80;;;;;;;;;;4994647;28;20065;-70
2023/04/25 04:20:04;;;;;;;11.30;6.45;;;;;;;;;;4995217;28;20109;-71
2023/04/25 04:22:30;;;;;;;11.02;6.50;;;;;;;;;;4994828;28;20104;-71
2023/04/25 04:24:56;;;;;;;12.00;6.65;;;;;;;;;;4994907;28;20057;-71
2023/04/25 04:27:23;;;;;;;11.35;6.22;;;;;;;;;;4994483;28;20034;-70
2023/04/25 04:29:50;;;;;;;11.98;5.72;;;;;;;;;;4994877;28;20027;-71
2023/04/25 04:32:17;;;;;;;13.00;5.93;;;;;;;;;;4994666;28;20503;-71
2023/04/25 04:34:43;;;;;;;11.75;5.57;;;;;;;;;;4977345;28;20022;-71
2023/04/25 04:37:09;;;;;;;8.85;6.43;;;;;;;;;;4994260;28;20103;-71
2023/04/25 04:39:35;;;;;;;10.10;6.35;;;;;;;;;;4982549;28;20069;-71
2023/04/25 04:42:01;;;;;;;8.55;6.25;;;;;;;;;;4977053;28;20023;-71
2023/04/25 04:44:35;;;;;;;8.80;5.45;;;;;;;;;;4994916;28;20106;-71
2023/04/25 04:47:01;;;;;;;12.23;5.93;;;;;;;;;;4982371;28;20018;-71
2023/04/25 04:49:27;;;;;;;11.38;5.75;;;;;;;;;;4994099;28;20503;-72
2023/04/25 04:51:54;;;;;;;16.15;5.88;;;;;;;;;;4993030;28;20477;-71
2023/04/25 04:54:20;;;;;;;10.38;5.63;;;;;;;;;;4992174;28;20030;-72
2023/04/25 04:56:46;;;;;;;10.07;6.50;;;;;;;;;;4991982;28;20030;-72
2023/04/25 04:59:12;;;;;;;10.73;5.32;;;;;;;;;;4991839;28;20065;-72
2023/04/25 05:01:38;;;;;;;7.30;5.80;;;;;;;;;;4992064;28;20058;-72
2023/04/25 05:04:04;;;;;;;6.93;4.93;;;;;;;;;;4992813;28;20105;-72
2023/04/25 05:06:31;;;;;;;10.25;5.32;;;;;;;;;;4993439;28;20044;-72
2023/04/25 05:08:57;;;;;;;8.07;4.30;;;;;;;;;;4993509;28;20077;-71
2023/04/25 05:11:23;;;;;;;9.35;5.15;;;;;;;;;;4993824;28;20149;-72
2023/04/25 05:13:53;;;;;;;9.77;4.28;;;;;;;;;;4993911;28;20017;-72
2023/04/25 05:16:19;;;;;;;6.18;4.28;;;;;;;;;;4993697;28;20046;-71
2023/04/25 05:18:46;;;;;;;7.28;4.10;;;;;;;;;;4993225;28;20100;-72
2023/04/25 05:21:12;;;;;;;9.45;3.80;;;;;;;;;;4993398;28;20496;-72
2023/04/25 05:23:38;;;;;;;5.28;3.78;;;;;;;;;;4993899;28;20069;-72
2023/04/25 05:26:05;;;;;;;7.10;3.53;;;;;;;;;;4993566;28;20022;-72
2023/04/25 05:28:31;;;;;;;9.98;3.95;;;;;;;;;;4993095;28;20734;-72
2023/04/25 05:30:57;;;;;;;6.10;3.67;;;;;;;;;;4993503;28;20022;-72
2023/04/25 05:33:23;;;;;;;10.80;3.78;;;;;;;;;;4993369;28;20014;-73
2023/04/25 05:35:49;;;;;;;11.27;3.75;;;;;;;;;;4993299;28;20023;-73
2023/04/25 05:38:15;;;;;;;6.57;4.40;;;;;;;;;;4992868;28;20034;-73
2023/04/25 05:40:41;;;;;;;7.93;3.85;;;;;;;;;;4993082;28;20068;-73
2023/04/25 05:43:08;;;;;;;5.57;3.78;;;;;;;;;;4993162;28;20023;-73
2023/04/25 05:45:34;;;;;;;12.90;3.55;;;;;;;;;;4993037;28;20108;-72
2023/04/25 05:48:00;;;;;;;6.85;3.83;;;;;;;;;;4992940;28;20030;-72
2023/04/25 05:50:26;;;;;;;8.75;3.58;;;;;;;;;;4991915;28;20473;-73
2023/04/25 05:52:52;;;;;;;5.20;3.50;;;;;;;;;;4993043;28;20023;-72
2023/04/25 05:55:18;;;;;;;8.98;3.83;;;;;;;;;;4993130;28;20100;-73
2023/04/25 05:57:45;;;;;;;8.18;3.90;;;;;;;;;;4977269;28;20436;-75
2023/04/25 06:00:12;;;;;;;6.40;3.53;;;;;;;;;;4993071;28;20097;-73
2023/04/25 06:02:38;;;;;;;5.30;3.40;;;;;;;;;;4992904;28;20439;-73
2023/04/25 06:05:04;;;;;;;8.02;3.80;;;;;;;;;;4992773;28;20023;-74
2023/04/25 06:07:30;;;;;;;7.35;3.10;;;;;;;;;;4992439;28;20500;-72
2023/04/25 06:09:57;;;;;;;6.20;3.40;;;;;;;;;;4992358;28;20026;-73
2023/04/25 06:12:23;;;;;;;7.70;3.90;;;;;;;;;;5034533;22;20046;-73
2023/04/25 06:14:49;;;;;;;6.32;3.58;;;;;;;;;;5030981;28;20399;-73
2023/04/25 06:17:15;;;;;;;5.07;3.13;;;;;;;;;;5031342;28;20100;-74
2023/04/25 06:19:41;;;;;;;7.10;3.38;;;;;;;;;;5031499;28;20025;-74
2023/04/25 06:22:08;;;;;;;8.77;3.40;;;;;;;;;;5023366;28;20022;-74
2023/04/25 06:24:34;;;;;;;7.30;3.08;;;;;;;;;;4994253;28;20388;-74
2023/04/25 06:27:00;;;;;;;4.50;3.55;;;;;;;;;;5011504;28;20022;-72
2023/04/25 06:29:26;;;;;;;7.65;3.88;;;;;;;;;;5011988;28;20062;-74
2023/04/25 06:31:52;;;;;;;11.90;4.05;;;;;;;;;;4994060;28;20496;-74
2023/04/25 06:34:18;;;;;;;8.95;4.70;;;;;;;;;;5011729;28;20140;-74
2023/04/25 06:36:44;;;;;;;9.50;4.00;;;;;;;;;;5011630;28;20026;-74
2023/04/25 06:39:11;;;;;;;10.45;5.18;;;;;;;;;;4999080;28;20022;-75
2023/04/25 06:41:37;;;;;;;8.20;4.65;;;;;;;;;;4993736;28;20037;-75
2023/04/25 06:44:03;;;;;;;8.90;4.85;;;;;;;;;;5011604;28;20333;-76
2023/04/25 06:46:29;;;;;;;10.70;4.65;;;;;;;;;;5011896;28;20575;-77
2023/04/25 06:48:55;;;;;;;6.75;4.13;;;;;;;;;;5011178;28;20747;-78
2023/04/25 06:51:21;;;;;;;6.93;4.00;;;;;;;;;;5011650;28;20018;-77
2023/04/25 06:53:47;;;;;;;7.10;4.65;;;;;;;;;;5011652;28;20022;-74
2023/04/25 06:56:13;;;;;;;11.50;5.55;;;;;;;;;;5011635;28;20026;-74
2023/04/25 06:58:39;;;;;;;11.10;5.78;;;;;;;;;;5011198;28;20124;-73
2023/04/25 07:01:05;;;;;;;10.43;5.22;;;;;;;;;;5011580;28;20480;-74
2023/04/25 07:03:31;;;;;;;8.05;4.47;;;;;;;;;;5012360;28;20057;-74
2023/04/25 07:05:57;;;;;;;13.60;6.18;;;;;;;;;;5011691;28;20030;-73
2023/04/25 07:08:23;;;;;;;17.15;8.00;;;;;;;;;;5011059;28;20029;-73
2023/04/25 07:10:50;;;;;;;13.57;6.03;;;;;;;;;;5011333;28;20018;-73
2023/04/25 07:13:16;;;;;;;12.45;4.82;;;;;;;;;;5011305;28;20030;-73
2023/04/25 07:15:42;;;;;;;7.53;3.85;;;;;;;;;;5011136;28;20148;-74
2023/04/25 07:18:08;;;;;;;12.45;5.30;;;;;;;;;;5011031;28;20033;-75
2023/04/25 07:20:34;;;;;;;9.35;4.63;;;;;;;;;;5012244;28;20026;-74
2023/04/25 07:23:00;;;;;;;8.70;3.90;;;;;;;;;;5015219;28;20063;-74
2023/04/25 07:25:26;;;;;;;7.13;3.47;;;;;;;;;;5015591;28;20033;-74
2023/04/25 07:27:52;;;;;;;5.45;3.78;;;;;;;;;;5015156;28;20022;-75
2023/04/25 07:30:18;;;;;;;5.93;3.72;;;;;;;;;;4996316;28;20456;-74
2023/04/25 07:32:45;;;;;;;9.15;4.00;;;;;;;;;;5015332;28;20084;-74
2023/04/25 07:35:11;;;;;;;13.32;5.05;;;;;;;;;;5015489;28;20025;-75
2023/04/25 07:37:37;;;;;;;11.40;3.58;;;;;;;;;;5015138;28;20028;-75
2023/04/25 07:40:03;;;;;;;5.82;2.85;;;;;;;;;;5015314;28;20113;-76
2023/04/25 07:42:30;;;;;;;8.27;3.65;;;;;;;;;;5015061;28;20026;-74
2023/04/25 07:44:56;;;;;;;7.03;3.15;;;;;;;;;;5014935;28;20030;-74
2023/04/25 07:47:22;;;;;;;6.63;3.47;;;;;;;;;;5014763;28;20034;-74
2023/04/25 07:49:48;;;;;;;7.28;3.38;;;;;;;;;;5015030;28;20037;-73
2023/04/25 07:52:14;;;;;;;8.55;3.35;;;;;;;;;;5014773;28;20022;-74
2023/04/25 07:54:40;;;;;;;20.42;5.68;;;;;;;;;;5014678;28;20033;-71
2023/04/25 07:57:06;;;;;;;7.13;3.60;;;;;;;;;;5014685;28;20435;-74
2023/04/25 07:59:32;;;;;;;8.57;3.47;;;;;;;;;;5014771;28;20029;-74
2023/04/25 08:01:59;;;;;;;9.90;3.45;;;;;;;;;;5015092;28;20026;-74
2023/04/25 08:04:25;;;;;;;6.97;3.45;;;;;;;;;;5014960;28;20595;-73
2023/04/25 08:06:53;;;;;;;7.32;2.55;;;;;;;;;;5014719;28;20026;-75
2023/04/25 08:09:19;;;;;;;7.35;2.95;;;;;;;;;;4996863;28;20026;-73
2023/04/25 08:11:46;;;;;;;9.68;4.05;;;;;;;;;;5014489;28;20471;-74
2023/04/25 08:14:13;;;;;;;11.45;3.67;;;;;;;;;;5014579;28;20384;-75
2023/04/25 08:16:39;;;;;;;7.35;2.65;;;;;;;;;;5014477;28;20441;-74
2023/04/25 08:19:05;;;;;;;6.85;2.67;;;;;;;;;;5014303;28;20476;-74
2023/04/25 08:21:31;;;;;;;7.45;3.05;;;;;;;;;;4996530;28;20037;-74
2023/04/25 08:23:58;;;;;;;5.30;3.00;;;;;;;;;;4996746;28;20033;-74
2023/04/25 08:26:24;;;;;;;8.25;3.60;;;;;;;;;;5014313;28;20030;-74
2023/04/25 08:28:50;;;;;;;8.98;3.30;;;;;;;;;;5013998;28;20028;-76
2023/04/25 08:31:17;;;;;;;4.57;3.10;;;;;;;;;;5014119;28;20037;-74
2023/04/25 08:33:44;;;;;;;8.15;3.20;;;;;;;;;;5013971;28;20034;-76
2023/04/25 08:36:10;;;;;;;7.35;3.00;;;;;;;;;;4996676;28;20022;-77
2023/04/25 08:38:36;;;;;;;6.22;2.92;;;;;;;;;;4996282;28;20026;-77
2023/04/25 08:41:02;;;;;;;5.85;3.03;;;;;;;;;;4996643;28;20121;-77
2023/04/25 08:43:30;;;;;;;8.45;3.88;;;;;;;;;;5014249;28;20044;-77
2023/04/25 08:45:59;;;;;;;6.53;3.53;;;;;;;;;;5014794;28;20097;-74
2023/04/25 08:48:27;;;;;;;5.40;3.03;;;;;;;;;;5014624;28;20113;-75
2023/04/25 08:50:54;;;;;;;5.88;3.13;;;;;;;;;;5015452;28;20022;-75
2023/04/25 08:53:22;;;;;;;6.07;3.42;;;;;;;;;;4998716;28;20018;-73
2023/04/25 08:55:49;;;;;;;7.43;3.38;;;;;;;;;;5019998;28;20030;-75
2023/04/25 08:58:15;;;;;;;6.47;3.72;;;;;;;;;;5018638;28;20033;-78
2023/04/25 09:00:41;;;;;;;5.75;4.10;;;;;;;;;;5001099;28;20054;-74
2023/04/25 09:03:08;;;;;;;5.28;4.55;;;;;;;;;;5019035;28;20103;-75
2023/04/25 09:05:35;;;;;;;9.55;4.10;;;;;;;;;;5019353;28;20089;-74
2023/04/25 09:08:01;;;;;;;10.18;5.07;;;;;;;;;;5016917;28;20033;-72
2023/04/25 09:10:27;;;;;;;7.82;4.65;;;;;;;;;;5013943;28;20018;-74
2023/04/25 09:13:06;;;;;;;8.85;4.68;;;;;;;;;;5013697;28;20127;-75
2023/04/25 09:15:32;;;;;;;8.52;4.35;;;;;;;;;;5013700;28;20029;-72
2023/04/25 09:17:59;;;;;;;11.82;5.18;;;;;;;;;;5013528;28;20126;-74
2023/04/25 09:20:25;;;;;;;11.45;5.10;;;;;;;;;;4995884;28;20026;-74
2023/04/25 09:23:05;;;;;;;10.55;5.68;;;;;;;;;;5013140;28;20639;-74
2023/04/25 09:25:36;;;;;;;7.03;4.82;;;;;;;;;;5013506;28;20025;-74
2023/04/25 09:28:04;;;;;;;10.50;5.13;;;;;;;;;;5012888;28;20061;-75
2023/04/25 09:30:31;;;;;;;9.50;4.43;;;;;;;;;;5013519;28;20034;-75
2023/04/25 09:32:58;;;;;;;10.20;4.82;;;;;;;;;;5013397;28;20362;-74
2023/04/25 09:35:27;;;;;;;13.73;4.30;;;;;;;;;;5013413;28;20038;-75
2023/04/25 09:37:53;;;;;;;10.18;4.35;;;;;;;;;;4995674;28;20072;-73
2023/04/25 09:40:19;;;;;;;10.02;4.35;;;;;;;;;;5013296;28;20072;-75
2023/04/25 09:42:45;;;;;;;6.63;4.13;;;;;;;;;;5013114;28;20021;-74
2023/04/25 09:45:16;;;;;;;12.80;4.20;;;;;;;;;;5012288;28;20104;-73
2023/04/25 09:47:43;;;;;;;8.82;4.28;;;;;;;;;;5012575;28;20030;-76
2023/04/25 09:50:17;;;;;;;6.78;4.85;;;;;;;;;;5013177;28;20021;-73
2023/04/25 09:52:43;;;;;;;14.60;4.45;;;;;;;;;;5012797;28;20018;-74
2023/04/25 09:55:09;;;;;;;10.95;5.22;;;;;;;;;;5012917;28;20029;-73
2023/04/25 09:57:39;;;;;;;17.98;6.47;;;;;;;;;;5012387;28;20030;-73
2023/04/25 10:00:09;;;;;;;9.07;4.85;;;;;;;;;;5013017;28;20026;-74
2023/04/25 10:02:35;;;;;;;7.45;4.70;;;;;;;;;;5012566;28;20022;-75
2023/04/25 10:05:03;;;;;;;8.45;5.38;;;;;;;;;;5012870;28;20029;-75
2023/04/25 10:07:31;;;;;;;13.68;4.93;;;;;;;;;;5012301;28;20095;-73
2023/04/25 10:10:02;;;;;;;7.53;4.30;;;;;;;;;;5012669;28;20022;-75
2023/04/25 10:12:28;;;;;;;9.88;4.88;;;;;;;;;;5012416;28;20622;-75
2023/04/25 10:14:55;;;;;;;9.70;4.47;;;;;;;;;;5012442;28;20033;-75
2023/04/25 10:17:21;;;;;;;9.27;4.38;;;;;;;;;;5012118;28;20017;-76
2023/04/25 10:19:51;;;;;;;9.93;4.72;;;;;;;;;;5012738;28;20032;-75
2023/04/25 10:22:17;;;;;;;8.73;3.92;;;;;;;;;;5012264;28;20108;-74
2023/04/25 10:24:44;;;;;;;6.25;3.50;;;;;;;;;;5012328;28;20064;-75
2023/04/25 10:27:10;;;;;;;6.10;3.83;;;;;;;;;;5011885;28;20026;-74
2023/04/25 10:29:36;;;;;;;9.50;3.38;;;;;;;;;;5012027;28;20036;-73
2023/04/25 10:32:02;;;;;;;8.90;3.55;;;;;;;;;;5012013;28;20060;-72
2023/04/25 10:34:39;;;;;;;13.55;4.70;;;;;;;;;;5012054;28;20057;-74
2023/04/25 10:37:06;;;;;;;6.80;3.70;;;;;;;;;;5011765;28;20052;-78
2023/04/25 10:39:33;;;;;;;7.55;4.30;;;;;;;;;;4994180;28;20046;-74
2023/04/25 10:42:03;;;;;;;5.90;4.18;;;;;;;;;;4994102;28;20116;-74
2023/04/25 10:44:29;;;;;;;7.05;4.32;;;;;;;;;;5011949;28;20030;-74
2023/04/25 10:47:00;;;;;;;6.15;4.00;;;;;;;;;;5011603;28;20037;-72
2023/04/25 10:49:30;;;;;;;9.15;4.47;;;;;;;;;;5012131;28;20046;-74
2023/04/25 10:52:31;;;;;;;9.55;4.63;;;;;;;;;;5011515;28;20024;-75
2023/04/25 10:54:58;;;;;;;12.32;4.95;;;;;;;;;;4950593;28;20023;-72
2023/04/25 10:57:43;;;;;;;8.40;4.82;;;;;;;;;;4998945;28;20022;-73
2023/04/25 11:00:10;;;;;;;9.73;4.55;;;;;;;;;;4994267;28;20022;-74
2023/04/25 11:02:46;;;;;;;8.98;5.53;;;;;;;;;;5011518;28;20021;-74
2023/04/25 11:05:36;;;;;;;14.13;6.00;;;;;;;;;;5011416;28;20036;-74
2023/04/25 11:08:03;;;;;;;17.95;6.88;;;;;;;;;;4981414;28;20165;-74
2023/04/25 11:10:35;;;;;;;10.02;5.68;;;;;;;;;;4992009;28;20101;-75
2023/04/25 11:13:01;;;;;;;10.38;6.30;;;;;;;;;;4991783;28;20084;-75
2023/04/25 11:15:27;;;;;;;13.65;6.72;;;;;;;;;;4991833;28;20091;-75
2023/04/25 11:17:53;;;;;;;16.50;6.47;;;;;;;;;;4991431;28;20554;-75
2023/04/25 11:20:20;;;;;;;12.00;5.43;;;;;;;;;;4992120;28;20026;-73
2023/04/25 11:22:46;;;;;;;12.15;5.57;;;;;;;;;;4994225;28;20511;-74
2023/04/25 11:25:14;;;;;;;15.43;5.07;;;;;;;;;;5011445;28;20033;-71
2023/04/25 11:27:51;;;;;;;9.93;4.18;;;;;;;;;;5010341;28;20396;-74
2023/04/25 11:30:17;;;;;;;8.10;2.97;;;;;;;;;;5009622;28;20198;-75
2023/04/25 11:32:43;;;;;;;8.65;2.75;;;;;;;;;;5010920;28;20050;-75
2023/04/25 11:35:12;;;;;;;12.48;4.53;;;;;;;;;;5009633;28;20032;-76
2023/04/25 11:37:42;;;;;;;6.20;2.92;;;;;;;;;;5011224;28;20029;-74
2023/04/25 11:40:09;;;;;;;9.20;2.33;;;;;;;;;;5011631;28;20030;-74
2023/04/25 11:42:37;;;;;;;4.53;1.85;;;;;;;;;;5011055;28;20029;-77
2023/04/25 11:45:04;;;;;;;7.70;1.98;;;;;;;;;;5011364;28;20022;-74
2023/04/25 11:47:31;;;;;;;7.45;2.55;;;;;;;;;;5011055;28;20137;-74
2023/04/25 11:50:00;;;;;;;6.45;2.53;;;;;;;;;;5011540;28;20061;-74
2023/04/25 11:52:56;;;;;;;6.70;2.10;;;;;;;;;;5011199;28;20439;-74
2023/04/25 11:55:22;;;;;;;10.07;2.80;;;;;;;;;;4994173;28;20030;-72
2023/04/25 11:57:52;;;;;;;6.90;2.67;;;;;;;;;;5010964;28;20030;-74
2023/04/25 12:00:20;;;;;;;12.02;3.15;;;;;;;;;;5011327;28;20026;-73
2023/04/25 12:02:57;;;;;;;6.70;2.58;;;;;;;;;;4993455;28;20037;-76
2023/04/25 12:05:30;;;;;;;8.50;2.85;;;;;;;;;;5011077;28;20022;-71
2023/04/25 12:07:56;;;;;;;5.28;2.80;;;;;;;;;;5013561;28;20117;-74
2023/04/25 12:10:22;;;;;;;6.65;2.65;;;;;;;;;;5015416;28;20034;-74
2023/04/25 12:12:48;;;;;;;5.97;2.38;;;;;;;;;;5039474;23;20045;-70
2023/04/25 12:15:17;;;;;;;6.88;2.33;;;;;;;;;;5014669;28;20103;-70
2023/04/25 12:17:45;;;;;;;8.63;2.85;;;;;;;;;;5014224;28;20492;-71
2023/04/25 12:20:13;;;;;;;11.30;3.35;;;;;;;;;;4997089;28;20034;-71
2023/04/25 12:22:44;;;;;;;9.57;2.95;;;;;;;;;;5014737;28;20105;-69
2023/04/25 12:25:10;;;;;;;16.35;3.60;;;;;;;;;;5014798;28;20037;-70
2023/04/25 12:27:36;;;;;;;11.23;3.45;;;;;;;;;;5013966;28;20101;-71
2023/04/25 12:30:03;;;;;;;8.70;2.58;;;;;;;;;;5014664;28;20026;-71
2023/04/25 12:32:29;;;;;;;24.80;3.67;;;;;;;;;;5014663;28;20022;-71
2023/04/25 12:34:55;;;;;;;12.32;3.00;;;;;;;;;;5014276;28;20076;-70
2023/04/25 12:37:21;;;;;;;10.18;2.90;;;;;;;;;;4996369;28;20122;-70
2023/04/25 12:39:47;;;;;;;15.63;3.05;;;;;;;;;;5014327;28;20526;-69
2023/04/25 12:42:13;;;;;;;10.82;3.03;;;;;;;;;;4996406;28;20443;-71
2023/04/25 12:44:40;;;;;;;12.50;4.15;;;;;;;;;;5014216;28;20022;-70
2023/04/25 12:47:06;;;;;;;7.95;2.75;;;;;;;;;;5014247;28;20018;-70
2023/04/25 12:49:32;;;;;;;11.45;2.90;;;;;;;;;;4996249;28;20030;-70
2023/04/25 12:51:59;;;;;;;7.18;2.85;;;;;;;;;;4996621;28;20032;-71
2023/04/25 12:54:25;;;;;;;11.52;3.42;;;;;;;;;;5014720;28;20066;-71
2023/04/25 12:56:52;;;;;;;7.10;3.17;;;;;;;;;;5015018;28;20036;-72
2023/04/25 12:59:19;;;;;;;12.50;4.07;;;;;;;;;;5013976;28;20030;-71
2023/04/25 13:01:45;;;;;;;11.00;3.40;;;;;;;;;;5013496;28;20041;-71
2023/04/25 13:04:11;;;;;;;11.40;3.67;;;;;;;;;;4996316;28;20064;-71
2023/04/25 13:06:37;;;;;;;24.73;3.97;;;;;;;;;;5013710;28;20113;-71
2023/04/25 13:09:04;;;;;;;18.52;4.22;;;;;;;;;;4995807;28;20463;-70
2023/04/25 13:11:31;;;;;;;14.23;4.00;;;;;;;;;;5013640;28;20022;-71
2023/04/25 13:13:57;;;;;;;14.88;4.70;;;;;;;;;;5013454;28;20032;-71
2023/04/25 13:16:23;;;;;;;12.63;4.35;;;;;;;;;;5013328;28;20033;-70
2023/04/25 13:18:49;;;;;;;13.48;4.70;;;;;;;;;;5013114;28;20029;-70
2023/04/25 13:21:15;;;;;;;11.77;4.40;;;;;;;;;;5013560;28;20101;-70
2023/04/25 13:23:42;;;;;;;13.75;5.15;;;;;;;;;;4995785;28;20037;-70
2023/04/25 13:26:08;;;;;;;12.85;4.68;;;;;;;;;;5013548;28;20033;-70
2023/04/25 13:28:34;;;;;;;11.73;4.65;;;;;;;;;;5013051;28;20064;-70
2023/04/25 13:31:01;;;;;;;17.25;5.13;;;;;;;;;;5013473;28;20054;-70
2023/04/25 13:33:27;;;;;;;11.57;4.60;;;;;;;;;;5013298;28;20369;-71
2023/04/25 13:35:55;;;;;;;25.17;6.07;;;;;;;;;;5013126;28;20021;-70
2023/04/25 13:38:24;;;;;;;9.18;3.65;;;;;;;;;;5012601;28;20395;-70
2023/04/25 13:40:52;;;;;;;16.17;5.20;;;;;;;;;;5013200;28;20026;-70
2023/04/25 13:43:19;;;;;;;12.68;4.03;;;;;;;;;;5013023;28;20022;-70
2023/04/25 13:45:45;;;;;;;13.27;4.18;;;;;;;;;;5012893;28;20034;-70
2023/04/25 13:48:11;;;;;;;15.80;4.20;;;;;;;;;;5012935;28;20117;-70
2023/04/25 13:50:37;;;;;;;14.00;3.88;;;;;;;;;;5013110;28;20068;-70
2023/04/25 13:53:03;;;;;;;12.63;4.53;;;;;;;;;;5012812;28;20555;-70
2023/04/25 13:55:29;;;;;;;13.90;3.60;;;;;;;;;;5012733;28;20060;-69
2023/04/25 13:57:55;;;;;;;9.13;3.92;;;;;;;;;;5012597;28;20026;-70
2023/04/25 14:00:22;;;;;;;14.88;5.43;;;;;;;;;;5012354;28;20026;-72
2023/04/25 14:02:48;;;;;;;15.25;3.97;;;;;;;;;;5013135;28;20480;-70
2023/04/25 14:05:14;;;;;;;16.90;4.10;;;;;;;;;;4997283;28;20037;-70
2023/04/25 14:07:40;;;;;;;18.85;4.45;;;;;;;;;;5012161;28;20029;-71
2023/04/25 14:10:06;;;;;;;12.02;4.15;;;;;;;;;;5012512;28;20392;-70
2023/04/25 14:12:33;;;;;;;18.25;4.78;;;;;;;;;;5012601;28;20033;-70
2023/04/25 14:14:59;;;;;;;14.10;4.57;;;;;;;;;;5012199;28;20565;-70
2023/04/25 14:17:25;;;;;;;15.95;5.15;;;;;;;;;;5012290;28;20065;-70
2023/04/25 14:19:51;;;;;;;15.70;4.45;;;;;;;;;;5012478;28;20026;-70
2023/04/25 14:22:17;;;;;;;19.33;4.70;;;;;;;;;;5001597;28;20025;-70
2023/04/25 14:24:43;;;;;;;18.23;4.68;;;;;;;;;;5012423;28;20032;-72
2023/04/25 14:27:10;;;;;;;14.93;4.88;;;;;;;;;;5012548;28;20022;-70
2023/04/25 14:29:36;;;;;;;14.88;4.35;;;;;;;;;;5011909;28;20032;-71
2023/04/25 14:32:02;;;;;;;16.30;4.38;;;;;;;;;;5012435;28;20550;-71
2023/04/25 14:34:28;;;;;;;16.10;4.10;;;;;;;;;;5012434;28;20034;-71
2023/04/25 14:36:54;;;;;;;13.15;5.28;;;;;;;;;;5012323;28;20033;-69